sensor_id;sensor_type;location;lat;lon;timestamp;temperature;humidity
65245;DHT22;51846;48.692;2.382;2022-08-26T19:18:49;24.57;47.61
65245;DHT22;51846;48.692;2.382;2022-08-26T19:21:16;24.61;47.75
65245;DHT22;51846;48.692;2.382;2022-08-26T19:23:41;24.67;47.47
65245;DHT22;51846;48.692;2.382;2022-08-26T19:26:08;24.74;46.82
65245;DHT22;51846;48.692;2.382;2022-08-26T19:28:34;24.80;46.89
65245;DHT22;51846;48.692;2.382;2022-08-26T19:31:00;24.81;46.47
65245;DHT22;51846;48.692;2.382;2022-08-26T19:33:27;24.81;46.49
65245;DHT22;51846;48.692;2.382;2022-08-26T19:35:52;24.84;46.57
65245;DHT22;51846;48.692;2.382;2022-08-26T19:38:18;24.83;46.56
65245;DHT22;51846;48.692;2.382;2022-08-26T19:40:43;24.84;46.64
65245;DHT22;51846;48.692;2.382;2022-08-26T19:43:09;24.81;46.53
65245;DHT22;51846;48.692;2.382;2022-08-26T19:45:35;24.78;46.69
65245;DHT22;51846;48.692;2.382;2022-08-26T19:48:02;24.76;46.34
65245;DHT22;51846;48.692;2.382;2022-08-26T19:50:32;24.70;46.65
65245;DHT22;51846;48.692;2.382;2022-08-26T19:52:59;24.67;46.76
65245;DHT22;51846;48.692;2.382;2022-08-26T19:55:25;24.67;46.34
65245;DHT22;51846;48.692;2.382;2022-08-26T19:57:51;24.64;46.33
65245;DHT22;51846;48.692;2.382;2022-08-26T20:00:19;24.60;46.88
65245;DHT22;51846;48.692;2.382;2022-08-26T20:02:45;24.57;46.85
65245;DHT22;51846;48.692;2.382;2022-08-26T20:05:13;24.56;47.05
65245;DHT22;51846;48.692;2.382;2022-08-26T20:07:39;24.52;47.33
65245;DHT22;51846;48.692;2.382;2022-08-26T20:10:06;24.41;47.43
65245;DHT22;51846;48.692;2.382;2022-08-26T20:12:32;24.41;47.59
65245;DHT22;51846;48.692;2.382;2022-08-26T20:15:00;24.40;47.42
65245;DHT22;51846;48.692;2.382;2022-08-26T20:17:26;24.40;47.54
65245;DHT22;51846;48.692;2.382;2022-08-26T20:19:52;24.35;47.81
65245;DHT22;51846;48.692;2.382;2022-08-26T20:22:46;24.30;47.93
65245;DHT22;51846;48.692;2.382;2022-08-26T20:25:11;24.25;48.15
65245;DHT22;51846;48.692;2.382;2022-08-26T20:27:37;24.20;48.60
65245;DHT22;51846;48.692;2.382;2022-08-26T20:30:04;24.15;49.04
65245;DHT22;51846;48.692;2.382;2022-08-26T20:32:29;24.17;49.16
65245;DHT22;51846;48.692;2.382;2022-08-26T20:34:55;24.15;49.55
65245;DHT22;51846;48.692;2.382;2022-08-26T20:37:23;24.02;50.30
65245;DHT22;51846;48.692;2.382;2022-08-26T20:39:49;23.89;50.81
65245;DHT22;51846;48.692;2.382;2022-08-26T20:42:14;23.85;50.86
65245;DHT22;51846;48.692;2.382;2022-08-26T20:44:41;23.83;51.29
65245;DHT22;51846;48.692;2.382;2022-08-26T20:47:07;23.75;51.52
65245;DHT22;51846;48.692;2.382;2022-08-26T20:49:33;23.65;51.99
65245;DHT22;51846;48.692;2.382;2022-08-26T20:51:59;23.58;52.34
65245;DHT22;51846;48.692;2.382;2022-08-26T20:54:25;23.54;52.48
65245;DHT22;51846;48.692;2.382;2022-08-26T20:56:51;23.42;53.04
65245;DHT22;51846;48.692;2.382;2022-08-26T20:59:17;23.34;53.33
65245;DHT22;51846;48.692;2.382;2022-08-26T21:01:44;23.31;53.73
